Time;durP1;ratioP1;P1;durP2;ratioP2;P2;SDS_P1;SDS_P2;PMS_P1;PMS_P2;Temp;Humidity;BMP_temperature;BMP_pressure;BME280_temperature;BME280_humidity;BME280_pressure;Samples;Min_cycle;Max_cycle;Signal;HPM_P1;HPM_P2
2023/03/22 00:00:14;;;;;;;8.37;5.30;;;;;;;;;;5019683;28;20232;-62
2023/03/22 00:02:41;;;;;;;5.63;5.00;;;;;;;;;;5019879;28;20204;-62
2023/03/22 00:05:08;;;;;;;5.87;5.20;;;;;;;;;;5018377;28;20288;-63
2023/03/22 00:07:36;;;;;;;9.70;4.53;;;;;;;;;;5022966;28;20232;-62
2023/03/22 00:10:04;;;;;;;9.20;5.60;;;;;;;;;;5023192;28;20204;-62
2023/03/22 00:12:31;;;;;;;9.67;6.03;;;;;;;;;;5026186;28;20199;-62
2023/03/22 00:15:01;;;;;;;10.13;6.00;;;;;;;;;;5021208;28;20207;-62
2023/03/22 00:17:31;;;;;;;8.83;5.30;;;;;;;;;;5020778;28;20363;-63
2023/03/22 00:19:58;;;;;;;6.43;5.63;;;;;;;;;;5023396;28;20239;-64
2023/03/22 00:22:26;;;;;;;6.77;6.10;;;;;;;;;;5028115;28;20204;-64
2023/03/22 00:24:53;;;;;;;7.43;6.10;;;;;;;;;;5026207;28;20216;-64
2023/03/22 00:27:20;;;;;;;9.27;5.80;;;;;;;;;;5022205;28;20226;-64
2023/03/22 00:29:47;;;;;;;6.73;5.87;;;;;;;;;;5023382;28;20210;-64
2023/03/22 00:32:14;;;;;;;8.10;5.23;;;;;;;;;;5028932;28;20206;-64
2023/03/22 00:34:43;;;;;;;8.17;4.90;;;;;;;;;;5022642;28;20205;-64
2023/03/22 00:37:10;;;;;;;8.10;4.40;;;;;;;;;;5023477;28;20204;-64
2023/03/22 00:39:37;;;;;;;7.53;4.47;;;;;;;;;;5027167;28;20206;-63
2023/03/22 00:42:05;;;;;;;7.63;4.40;;;;;;;;;;5026263;28;20251;-63
2023/03/22 00:44:33;;;;;;;7.63;4.53;;;;;;;;;;5020479;28;20204;-64
2023/03/22 00:47:00;;;;;;;6.13;4.80;;;;;;;;;;5027295;28;20212;-63
2023/03/22 00:49:28;;;;;;;7.27;4.50;;;;;;;;;;5022656;28;20208;-64
2023/03/22 00:51:56;;;;;;;5.90;5.00;;;;;;;;;;5026760;28;20204;-63
2023/03/22 00:54:23;;;;;;;7.33;5.63;;;;;;;;;;5024239;28;20231;-63
2023/03/22 00:56:50;;;;;;;5.70;5.10;;;;;;;;;;5028098;28;20200;-64
2023/03/22 00:59:18;;;;;;;6.97;5.80;;;;;;;;;;5024490;28;20196;-63
2023/03/22 01:01:45;;;;;;;7.80;5.90;;;;;;;;;;5020413;28;20208;-63
2023/03/22 01:04:14;;;;;;;8.37;6.03;;;;;;;;;;5027731;28;20204;-63
2023/03/22 01:06:41;;;;;;;9.40;6.40;;;;;;;;;;5028331;28;20302;-63
2023/03/22 01:09:13;;;;;;;6.40;5.67;;;;;;;;;;5027550;28;20215;-63
2023/03/22 01:11:41;;;;;;;7.33;5.83;;;;;;;;;;5028529;28;20204;-63
2023/03/22 01:14:09;;;;;;;6.13;5.50;;;;;;;;;;5022429;28;20204;-64
2023/03/22 01:16:36;;;;;;;9.77;6.07;;;;;;;;;;5026987;28;20200;-64
2023/03/22 01:19:03;;;;;;;7.70;4.90;;;;;;;;;;5021071;28;20207;-63
2023/03/22 01:21:30;;;;;;;7.73;4.80;;;;;;;;;;5023238;28;20244;-63
2023/03/22 01:23:57;;;;;;;6.20;4.67;;;;;;;;;;5023829;28;20206;-63
2023/03/22 01:26:26;;;;;;;6.43;4.67;;;;;;;;;;5022208;28;20224;-63
2023/03/22 01:28:53;;;;;;;9.50;5.00;;;;;;;;;;5019681;28;20200;-63
2023/03/22 01:31:20;;;;;;;6.80;4.40;;;;;;;;;;5026165;28;20206;-63
2023/03/22 01:33:47;;;;;;;5.37;4.20;;;;;;;;;;5026420;28;20208;-63
2023/03/22 01:36:14;;;;;;;8.30;4.17;;;;;;;;;;5024058;28;20215;-63
2023/03/22 01:38:42;;;;;;;5.50;4.00;;;;;;;;;;5025240;28;20200;-63
2023/03/22 01:41:09;;;;;;;7.20;3.90;;;;;;;;;;5022224;28;20204;-63
2023/03/22 01:43:37;;;;;;;5.57;3.60;;;;;;;;;;5023416;28;20204;-64
2023/03/22 01:46:05;;;;;;;6.03;3.70;;;;;;;;;;5024215;28;20208;-63
2023/03/22 01:48:33;;;;;;;4.83;3.90;;;;;;;;;;5026288;28;20386;-63
2023/03/22 01:51:06;;;;;;;5.97;3.47;;;;;;;;;;5026281;28;20197;-63
2023/03/22 01:53:35;;;;;;;4.43;3.23;;;;;;;;;;5011917;28;20205;-64
2023/03/22 01:56:02;;;;;;;5.57;3.90;;;;;;;;;;5025036;28;20295;-64
2023/03/22 01:58:29;;;;;;;5.13;3.40;;;;;;;;;;5026236;28;20208;-63
2023/03/22 02:00:59;;;;;;;5.20;3.47;;;;;;;;;;5023222;28;20200;-64
2023/03/22 02:03:31;;;;;;;5.00;3.93;;;;;;;;;;5023103;28;20205;-64
2023/03/22 02:05:58;;;;;;;5.97;3.80;;;;;;;;;;5021624;28;20201;-63
2023/03/22 02:08:25;;;;;;;7.63;3.87;;;;;;;;;;5025415;28;20208;-63
2023/03/22 02:10:52;;;;;;;5.90;3.90;;;;;;;;;;5026752;28;20211;-63
2023/03/22 02:13:27;;;;;;;6.73;3.90;;;;;;;;;;5022769;28;20296;-63
2023/03/22 02:16:03;;;;;;;5.87;3.50;;;;;;;;;;5022699;28;20203;-64
2023/03/22 02:18:38;;;;;;;6.83;4.30;;;;;;;;;;5026167;28;20208;-63
2023/03/22 02:21:32;;;;;;;6.37;4.17;;;;;;;;;;5025117;28;20214;-65
2023/03/22 02:24:18;;;;;;;8.10;4.43;;;;;;;;;;5025290;28;20211;-64
2023/03/22 02:27:03;;;;;;;5.13;4.60;;;;;;;;;;5023842;28;20219;-64
2023/03/22 02:29:34;;;;;;;4.70;4.20;;;;;;;;;;5026636;28;20227;-63
2023/03/22 02:32:13;;;;;;;7.33;4.80;;;;;;;;;;5023344;28;20208;-63
2023/03/22 02:34:58;;;;;;;8.07;4.87;;;;;;;;;;5027289;28;20204;-64
2023/03/22 02:37:35;;;;;;;5.40;4.80;;;;;;;;;;5023138;28;20211;-63
2023/03/22 02:40:05;;;;;;;8.00;4.33;;;;;;;;;;5022932;28;20214;-64
2023/03/22 02:42:40;;;;;;;7.83;5.27;;;;;;;;;;5010375;28;20222;-64
2023/03/22 02:45:10;;;;;;;7.77;4.73;;;;;;;;;;5022022;28;20196;-64
2023/03/22 02:47:39;;;;;;;7.27;5.37;;;;;;;;;;5022334;28;20346;-64
2023/03/22 02:50:10;;;;;;;7.40;5.50;;;;;;;;;;5023980;28;20211;-63
2023/03/22 02:52:39;;;;;;;6.20;4.87;;;;;;;;;;5021377;28;20204;-63
2023/03/22 02:55:11;;;;;;;7.67;5.43;;;;;;;;;;5021654;28;20212;-64
2023/03/22 02:57:41;;;;;;;6.53;4.70;;;;;;;;;;5021442;28;20205;-63
2023/03/22 03:00:11;;;;;;;7.67;5.13;;;;;;;;;;5025041;28;20295;-63
2023/03/22 03:02:40;;;;;;;7.57;4.90;;;;;;;;;;5021862;28;20200;-64
2023/03/22 03:05:08;;;;;;;8.67;5.40;;;;;;;;;;5025284;28;20258;-63
2023/03/22 03:07:35;;;;;;;6.80;5.33;;;;;;;;;;5023474;28;20368;-64
2023/03/22 03:10:03;;;;;;;11.23;6.37;;;;;;;;;;5026220;28;20232;-64
2023/03/22 03:12:32;;;;;;;6.93;4.60;;;;;;;;;;5020311;28;20209;-71
2023/03/22 03:14:59;;;;;;;6.43;4.87;;;;;;;;;;5022952;28;20197;-71
2023/03/22 03:17:36;;;;;;;6.63;4.50;;;;;;;;;;5023556;28;20212;-72
2023/03/22 03:20:20;;;;;;;4.83;4.30;;;;;;;;;;5024102;28;20204;-71
2023/03/22 03:22:54;;;;;;;8.27;4.63;;;;;;;;;;5015404;28;20211;-71
2023/03/22 03:25:25;;;;;;;6.60;4.93;;;;;;;;;;5020503;28;20203;-71
2023/03/22 03:27:59;;;;;;;5.93;4.93;;;;;;;;;;5021685;28;20315;-71
2023/03/22 03:30:29;;;;;;;7.40;5.40;;;;;;;;;;5024205;28;20291;-71
2023/03/22 03:32:59;;;;;;;7.70;5.33;;;;;;;;;;5022751;28;20201;-70
2023/03/22 03:35:27;;;;;;;6.77;5.40;;;;;;;;;;5024183;28;20228;-70
2023/03/22 03:37:57;;;;;;;6.37;5.03;;;;;;;;;;5024484;28;20193;-71
2023/03/22 03:40:26;;;;;;;8.70;5.30;;;;;;;;;;5022107;28;20288;-70
2023/03/22 03:42:56;;;;;;;8.47;5.10;;;;;;;;;;5022459;28;20203;-70
2023/03/22 03:45:24;;;;;;;8.70;5.03;;;;;;;;;;5017188;28;20226;-70
2023/03/22 03:47:55;;;;;;;5.67;4.20;;;;;;;;;;5022567;28;20232;-70
2023/03/22 03:50:23;;;;;;;6.13;4.50;;;;;;;;;;5021595;28;20234;-70
2023/03/22 03:52:51;;;;;;;6.03;4.90;;;;;;;;;;5019807;28;20208;-70
2023/03/22 03:55:18;;;;;;;5.60;5.03;;;;;;;;;;5022956;28;20210;-70
2023/03/22 03:57:45;;;;;;;7.50;4.33;;;;;;;;;;5023858;28;20200;-70
2023/03/22 04:00:15;;;;;;;7.47;4.60;;;;;;;;;;5022916;28;20210;-70
2023/03/22 04:02:43;;;;;;;5.83;4.73;;;;;;;;;;5025188;28;20208;-70
2023/03/22 04:05:10;;;;;;;7.43;4.60;;;;;;;;;;5023568;28;20206;-70
2023/03/22 04:07:37;;;;;;;5.60;4.17;;;;;;;;;;5026153;28;20283;-70
2023/03/22 04:10:05;;;;;;;6.53;4.67;;;;;;;;;;5024316;28;20300;-70
2023/03/22 04:12:33;;;;;;;5.40;4.90;;;;;;;;;;5019365;28;20223;-70
2023/03/22 04:15:00;;;;;;;8.80;5.30;;;;;;;;;;5022781;28;20200;-70
2023/03/22 04:17:30;;;;;;;7.17;4.90;;;;;;;;;;5022599;28;20204;-70
2023/03/22 04:19:58;;;;;;;9.70;5.50;;;;;;;;;;5022818;28;20208;-70
2023/03/22 04:22:25;;;;;;;5.97;5.20;;;;;;;;;;5025471;28;20205;-70
2023/03/22 04:24:52;;;;;;;8.80;5.47;;;;;;;;;;5020034;28;20299;-71
2023/03/22 04:27:21;;;;;;;5.90;4.90;;;;;;;;;;5020781;28;20222;-70
2023/03/22 04:29:49;;;;;;;6.93;4.70;;;;;;;;;;5020593;28;20204;-70
2023/03/22 04:32:17;;;;;;;6.53;4.50;;;;;;;;;;5021367;28;20262;-70
2023/03/22 04:34:46;;;;;;;7.00;4.70;;;;;;;;;;5023445;28;20201;-70
2023/03/22 04:37:13;;;;;;;8.83;4.90;;;;;;;;;;5021586;28;20230;-70
2023/03/22 04:39:40;;;;;;;7.47;4.70;;;;;;;;;;5026605;28;20199;-70
2023/03/22 04:42:07;;;;;;;5.03;4.37;;;;;;;;;;5026186;28;20211;-70
2023/03/22 04:44:35;;;;;;;5.63;4.33;;;;;;;;;;5021633;28;20209;-70
2023/03/22 04:47:02;;;;;;;6.07;4.67;;;;;;;;;;5022301;28;20243;-70
2023/03/22 04:49:30;;;;;;;6.73;5.00;;;;;;;;;;5013850;28;20223;-72
2023/03/22 04:51:58;;;;;;;5.33;4.40;;;;;;;;;;5020610;28;20196;-72
2023/03/22 04:54:26;;;;;;;6.73;4.27;;;;;;;;;;5023118;28;20218;-72
2023/03/22 04:56:53;;;;;;;5.20;4.47;;;;;;;;;;5020362;28;20232;-72
2023/03/22 04:59:20;;;;;;;5.43;4.83;;;;;;;;;;5020317;28;20244;-72
2023/03/22 05:01:48;;;;;;;7.63;5.13;;;;;;;;;;5020461;28;20211;-72
2023/03/22 05:04:15;;;;;;;5.53;4.50;;;;;;;;;;5024678;28;20208;-71
2023/03/22 05:06:42;;;;;;;6.83;4.53;;;;;;;;;;5026347;28;20215;-71
2023/03/22 05:09:11;;;;;;;5.43;4.60;;;;;;;;;;5023249;28;20218;-71
2023/03/22 05:11:39;;;;;;;6.93;4.67;;;;;;;;;;5023416;28;20211;-72
2023/03/22 05:14:07;;;;;;;5.87;4.50;;;;;;;;;;5026767;28;20208;-71
2023/03/22 05:16:34;;;;;;;7.50;3.80;;;;;;;;;;5024557;28;20208;-71
2023/03/22 05:19:02;;;;;;;6.03;4.27;;;;;;;;;;5026473;28;20213;-71
2023/03/22 05:21:35;;;;;;;6.93;4.23;;;;;;;;;;5025919;28;20216;-71
2023/03/22 05:24:03;;;;;;;5.03;4.50;;;;;;;;;;5023444;28;20200;-64
2023/03/22 05:26:31;;;;;;;6.33;3.93;;;;;;;;;;5026172;28;20200;-63
2023/03/22 05:28:58;;;;;;;8.17;4.00;;;;;;;;;;5027668;28;20224;-64
2023/03/22 05:31:27;;;;;;;6.33;3.80;;;;;;;;;;5022378;28;20300;-64
2023/03/22 05:33:54;;;;;;;8.33;4.03;;;;;;;;;;5024011;28;20295;-64
2023/03/22 05:36:22;;;;;;;5.03;3.90;;;;;;;;;;5024985;28;20211;-64
2023/03/22 05:38:50;;;;;;;6.10;3.93;;;;;;;;;;5022329;28;20224;-64
2023/03/22 05:41:18;;;;;;;6.03;4.40;;;;;;;;;;5030194;28;20201;-63
2023/03/22 05:43:46;;;;;;;7.00;4.03;;;;;;;;;;5023513;28;20259;-63
2023/03/22 05:46:13;;;;;;;6.60;4.07;;;;;;;;;;5020342;28;20203;-64
2023/03/22 05:48:41;;;;;;;6.37;3.90;;;;;;;;;;5029679;28;20234;-64
2023/03/22 05:51:08;;;;;;;6.30;4.00;;;;;;;;;;5026671;28;20204;-64
2023/03/22 05:53:35;;;;;;;6.77;4.27;;;;;;;;;;5029862;28;20201;-64
2023/03/22 05:56:03;;;;;;;7.80;4.43;;;;;;;;;;5027005;28;20303;-64
2023/03/22 05:58:30;;;;;;;7.17;4.40;;;;;;;;;;5021809;28;20250;-64
2023/03/22 06:00:59;;;;;;;6.43;4.60;;;;;;;;;;5026599;28;20280;-64
2023/03/22 06:03:27;;;;;;;5.63;4.10;;;;;;;;;;5026752;28;20213;-64
2023/03/22 06:05:55;;;;;;;6.80;3.97;;;;;;;;;;5020955;28;20209;-63
2023/03/22 06:08:22;;;;;;;6.10;4.10;;;;;;;;;;5026308;28;20316;-65
2023/03/22 06:10:50;;;;;;;6.37;4.20;;;;;;;;;;5024336;28;20214;-63
2023/03/22 06:13:17;;;;;;;7.57;4.13;;;;;;;;;;5023268;28;20209;-64
2023/03/22 06:15:45;;;;;;;6.63;4.00;;;;;;;;;;5018350;28;20223;-63
2023/03/22 06:18:14;;;;;;;5.53;4.20;;;;;;;;;;5024815;28;20201;-63
2023/03/22 06:20:41;;;;;;;4.47;3.80;;;;;;;;;;5025462;28;20328;-64
2023/03/22 06:23:08;;;;;;;6.50;3.77;;;;;;;;;;5020406;28;20216;-63
2023/03/22 06:25:35;;;;;;;6.37;3.80;;;;;;;;;;5026522;28;20210;-64
2023/03/22 06:28:02;;;;;;;4.77;3.30;;;;;;;;;;5032432;28;20246;-64
2023/03/22 06:30:30;;;;;;;5.60;3.47;;;;;;;;;;5022115;28;20214;-64
2023/03/22 06:32:59;;;;;;;5.33;3.43;;;;;;;;;;5027670;28;20275;-64
2023/03/22 06:35:27;;;;;;;5.77;3.60;;;;;;;;;;5025158;28;20215;-63
2023/03/22 06:37:55;;;;;;;5.37;3.40;;;;;;;;;;5004607;28;20208;-64
2023/03/22 06:40:22;;;;;;;7.03;3.40;;;;;;;;;;5019319;28;20205;-61
2023/03/22 06:42:49;;;;;;;4.63;2.97;;;;;;;;;;5022382;28;20235;-61
2023/03/22 06:45:17;;;;;;;6.07;2.80;;;;;;;;;;5027723;28;20219;-62
2023/03/22 06:47:44;;;;;;;6.13;3.20;;;;;;;;;;5027234;28;20224;-62
2023/03/22 06:50:14;;;;;;;4.73;3.00;;;;;;;;;;5025356;28;20195;-62
2023/03/22 06:52:42;;;;;;;5.40;3.07;;;;;;;;;;5022174;28;20204;-64
2023/03/22 06:55:10;;;;;;;5.90;2.90;;;;;;;;;;5025491;28;20246;-62
2023/03/22 06:57:37;;;;;;;5.67;3.40;;;;;;;;;;5021031;28;20204;-61
2023/03/22 07:00:05;;;;;;;5.43;3.10;;;;;;;;;;5016828;28;20204;-62
2023/03/22 07:02:33;;;;;;;7.07;3.63;;;;;;;;;;5025950;28;20204;-62
2023/03/22 07:05:00;;;;;;;6.50;3.20;;;;;;;;;;5028651;28;20200;-64
2023/03/22 07:07:27;;;;;;;4.73;3.00;;;;;;;;;;5033391;28;20213;-62
2023/03/22 07:09:57;;;;;;;5.17;3.00;;;;;;;;;;5027277;28;20238;-62
2023/03/22 07:12:24;;;;;;;5.67;3.20;;;;;;;;;;5026267;28;20235;-62
2023/03/22 07:14:52;;;;;;;3.67;2.77;;;;;;;;;;5019467;28;20291;-62
2023/03/22 07:17:19;;;;;;;4.23;2.93;;;;;;;;;;5022442;28;20208;-62
2023/03/22 07:19:46;;;;;;;5.17;2.80;;;;;;;;;;5013859;28;20204;-62
2023/03/22 07:22:14;;;;;;;4.80;3.03;;;;;;;;;;5022431;28;20205;-62
2023/03/22 07:24:41;;;;;;;5.03;3.30;;;;;;;;;;5018804;28;20208;-64
2023/03/22 07:27:10;;;;;;;3.23;2.93;;;;;;;;;;5020839;28;20205;-62
2023/03/22 07:29:38;;;;;;;4.67;3.20;;;;;;;;;;5015695;28;20225;-65
2023/03/22 07:32:05;;;;;;;3.70;3.07;;;;;;;;;;5023890;28;20204;-64
2023/03/22 07:34:35;;;;;;;5.23;2.80;;;;;;;;;;5022067;28;20204;-64
2023/03/22 07:37:02;;;;;;;5.00;2.93;;;;;;;;;;5020367;28;20211;-64
2023/03/22 07:39:30;;;;;;;4.03;2.83;;;;;;;;;;5020961;28;20227;-64
2023/03/22 07:41:57;;;;;;;4.27;2.50;;;;;;;;;;5021889;28;20212;-64
2023/03/22 07:44:26;;;;;;;4.57;2.50;;;;;;;;;;5016143;28;20207;-64
2023/03/22 07:46:54;;;;;;;5.00;2.43;;;;;;;;;;5024673;28;20208;-64
2023/03/22 07:49:21;;;;;;;4.27;2.43;;;;;;;;;;5022480;28;20224;-64
2023/03/22 07:51:48;;;;;;;3.63;2.40;;;;;;;;;;5022763;28;20204;-64
2023/03/22 07:54:16;;;;;;;4.53;2.30;;;;;;;;;;5016078;28;20211;-64
2023/03/22 07:56:43;;;;;;;4.10;2.20;;;;;;;;;;5020641;28;20201;-65
2023/03/22 07:59:11;;;;;;;3.90;2.10;;;;;;;;;;5022497;28;20205;-64
2023/03/22 08:01:40;;;;;;;3.30;2.27;;;;;;;;;;5021180;28;20219;-64
2023/03/22 08:04:07;;;;;;;4.07;2.20;;;;;;;;;;5019262;28;20196;-64
2023/03/22 08:06:35;;;;;;;3.37;2.17;;;;;;;;;;5021165;28;20304;-63
2023/03/22 08:09:03;;;;;;;8.63;2.20;;;;;;;;;;5020796;28;20436;-64
2023/03/22 08:11:30;;;;;;;2.70;1.73;;;;;;;;;;5019157;28;20207;-64
2023/03/22 08:13:58;;;;;;;4.27;1.80;;;;;;;;;;5018528;28;20231;-64
2023/03/22 08:16:25;;;;;;;3.47;1.73;;;;;;;;;;5026193;28;20216;-64
2023/03/22 08:18:56;;;;;;;3.17;1.77;;;;;;;;;;5020985;28;20278;-64
2023/03/22 08:21:23;;;;;;;3.60;1.63;;;;;;;;;;5023104;28;20212;-64
2023/03/22 08:23:51;;;;;;;3.50;1.57;;;;;;;;;;5017546;28;20227;-64
2023/03/22 08:26:18;;;;;;;2.40;1.77;;;;;;;;;;5017880;28;20203;-64
2023/03/22 08:28:46;;;;;;;3.20;1.70;;;;;;;;;;5021196;28;20247;-63
2023/03/22 08:31:14;;;;;;;2.43;1.60;;;;;;;;;;5021277;28;20205;-64
2023/03/22 08:33:41;;;;;;;6.27;1.87;;;;;;;;;;5020161;28;20210;-72
2023/03/22 08:36:12;;;;;;;2.57;1.20;;;;;;;;;;5025944;28;20212;-71
2023/03/22 08:38:41;;;;;;;1.80;1.53;;;;;;;;;;5018984;28;20202;-70
2023/03/22 08:41:08;;;;;;;2.70;1.70;;;;;;;;;;5025472;28;20200;-71
2023/03/22 08:43:37;;;;;;;4.03;1.70;;;;;;;;;;5024403;28;20293;-68
2023/03/22 08:46:04;;;;;;;2.77;1.50;;;;;;;;;;5025551;28;20223;-68
2023/03/22 08:48:31;;;;;;;4.10;1.50;;;;;;;;;;5023495;28;20225;-71
2023/03/22 08:50:59;;;;;;;4.23;1.70;;;;;;;;;;5024196;28;20226;-70
2023/03/22 08:53:28;;;;;;;3.40;1.53;;;;;;;;;;5027264;28;20204;-69
2023/03/22 08:55:56;;;;;;;5.20;1.73;;;;;;;;;;5024770;28;20222;-69
2023/03/22 08:58:24;;;;;;;2.10;1.70;;;;;;;;;;5005814;28;20211;-69
2023/03/22 09:00:52;;;;;;;4.23;1.60;;;;;;;;;;5026566;28;20196;-68
2023/03/22 09:03:19;;;;;;;2.40;1.70;;;;;;;;;;5024145;28;20209;-69
2023/03/22 09:05:47;;;;;;;4.23;1.60;;;;;;;;;;5031682;28;20201;-69
2023/03/22 09:08:14;;;;;;;3.73;1.77;;;;;;;;;;5019011;28;20250;-69
2023/03/22 09:10:43;;;;;;;3.03;1.43;;;;;;;;;;5023692;28;20228;-68
2023/03/22 09:13:13;;;;;;;4.10;1.67;;;;;;;;;;5023162;28;20299;-70
2023/03/22 09:15:41;;;;;;;3.73;1.83;;;;;;;;;;5023853;28;20204;-70
2023/03/22 09:18:08;;;;;;;5.10;1.60;;;;;;;;;;5027721;28;20220;-69
2023/03/22 09:20:36;;;;;;;4.53;1.67;;;;;;;;;;5026760;28;20202;-69
2023/03/22 09:23:04;;;;;;;2.70;1.67;;;;;;;;;;5023673;28;20204;-69
2023/03/22 09:25:32;;;;;;;3.33;1.67;;;;;;;;;;5019030;28;20211;-69
2023/03/22 09:28:03;;;;;;;2.47;1.37;;;;;;;;;;5025940;28;20208;-70
2023/03/22 09:30:31;;;;;;;2.23;1.73;;;;;;;;;;5026222;28;20228;-70
2023/03/22 09:33:00;;;;;;;3.23;1.60;;;;;;;;;;5028666;28;20204;-69
2023/03/22 09:35:28;;;;;;;5.73;1.60;;;;;;;;;;5032187;28;20270;-70
2023/03/22 09:37:57;;;;;;;3.17;1.57;;;;;;;;;;5024162;28;20200;-69
2023/03/22 09:40:29;;;;;;;2.47;1.50;;;;;;;;;;5021687;28;20208;-70
2023/03/22 09:42:58;;;;;;;3.50;1.53;;;;;;;;;;5021782;28;20296;-71
2023/03/22 09:45:36;;;;;;;3.20;1.60;;;;;;;;;;5026358;28;20247;-70
2023/03/22 09:48:04;;;;;;;2.33;1.40;;;;;;;;;;5020636;28;20215;-70
2023/03/22 09:50:34;;;;;;;1.87;1.20;;;;;;;;;;5019506;28;20232;-70
2023/03/22 09:53:01;;;;;;;1.23;1.13;;;;;;;;;;5026958;28;20242;-70
2023/03/22 09:55:33;;;;;;;2.47;1.17;;;;;;;;;;5015398;28;20204;-71
2023/03/22 09:58:04;;;;;;;4.23;1.40;;;;;;;;;;5019640;28;20215;-70
2023/03/22 10:00:39;;;;;;;3.50;1.20;;;;;;;;;;5026091;28;20231;-70
2023/03/22 10:03:12;;;;;;;2.88;1.40;;;;;;;;;;5004175;28;20196;-70
2023/03/22 10:05:42;;;;;;;2.60;1.30;;;;;;;;;;5023811;28;20208;-69
2023/03/22 10:08:17;;;;;;;2.70;1.03;;;;;;;;;;5022533;28;20212;-69
2023/03/22 10:10:46;;;;;;;2.15;1.20;;;;;;;;;;5013308;28;20259;-70
2023/03/22 10:13:18;;;;;;;2.67;1.20;;;;;;;;;;5029088;28;20205;-69
2023/03/22 10:15:51;;;;;;;2.10;1.00;;;;;;;;;;5024916;28;20263;-69
2023/03/22 10:18:20;;;;;;;3.38;1.20;;;;;;;;;;5022518;28;20295;-69
2023/03/22 10:20:52;;;;;;;1.55;0.98;;;;;;;;;;5025136;28;20208;-69
2023/03/22 10:23:22;;;;;;;2.20;1.10;;;;;;;;;;5021182;28;20209;-69
2023/03/22 10:25:50;;;;;;;1.65;1.05;;;;;;;;;;5023177;28;20220;-69
2023/03/22 10:28:20;;;;;;;1.40;1.10;;;;;;;;;;5021746;28;20211;-69
2023/03/22 10:30:52;;;;;;;2.70;1.30;;;;;;;;;;5023199;28;20310;-70
2023/03/22 10:33:24;;;;;;;4.47;1.40;;;;;;;;;;5017656;28;20243;-69
2023/03/22 10:35:52;;;;;;;2.80;1.17;;;;;;;;;;5025911;28;20216;-69
2023/03/22 10:38:22;;;;;;;1.60;0.90;;;;;;;;;;5025511;28;20269;-70
2023/03/22 10:40:50;;;;;;;2.65;1.20;;;;;;;;;;5023528;28;20192;-69
2023/03/22 10:43:21;;;;;;;2.38;1.02;;;;;;;;;;5016914;28;20204;-70
2023/03/22 10:45:51;;;;;;;4.00;1.20;;;;;;;;;;5016356;28;20209;-69
2023/03/22 10:48:23;;;;;;;2.65;1.15;;;;;;;;;;5019334;28;20208;-69
2023/03/22 10:50:50;;;;;;;1.38;1.08;;;;;;;;;;5021539;28;20228;-69
2023/03/22 10:53:22;;;;;;;1.65;1.08;;;;;;;;;;5020645;28;20200;-69
2023/03/22 10:55:50;;;;;;;2.13;1.00;;;;;;;;;;5018941;28;20204;-68
2023/03/22 10:58:19;;;;;;;1.88;1.10;;;;;;;;;;5021130;28;20211;-69
2023/03/22 11:00:47;;;;;;;2.75;1.20;;;;;;;;;;5023587;28;20208;-70
2023/03/22 11:03:26;;;;;;;3.13;1.43;;;;;;;;;;5026004;28;20288;-70
2023/03/22 11:05:58;;;;;;;1.85;1.20;;;;;;;;;;5017713;28;20200;-69
2023/03/22 11:08:26;;;;;;;4.20;1.40;;;;;;;;;;5026329;28;20214;-69
2023/03/22 11:10:58;;;;;;;3.08;1.17;;;;;;;;;;5025894;28;20318;-70
2023/03/22 11:13:25;;;;;;;1.20;1.10;;;;;;;;;;5022905;28;20227;-70
2023/03/22 11:15:55;;;;;;;3.88;1.25;;;;;;;;;;5026598;28;20228;-70
2023/03/22 11:18:23;;;;;;;3.22;1.10;;;;;;;;;;5020388;28;20208;-69
2023/03/22 11:20:57;;;;;;;2.08;1.02;;;;;;;;;;5022052;28;20259;-69
2023/03/22 11:23:27;;;;;;;1.48;1.30;;;;;;;;;;5021589;28;20203;-70
2023/03/22 11:25:57;;;;;;;1.45;1.17;;;;;;;;;;5022454;28;20231;-69
2023/03/22 11:28:28;;;;;;;3.30;1.40;;;;;;;;;;5014604;28;20228;-70
2023/03/22 11:30:59;;;;;;;1.48;1.02;;;;;;;;;;5024266;28;20219;-70
2023/03/22 11:33:27;;;;;;;2.90;1.20;;;;;;;;;;5018052;28;20226;-70
2023/03/22 11:35:59;;;;;;;4.15;1.10;;;;;;;;;;5019526;28;20216;-69
2023/03/22 11:38:29;;;;;;;2.13;1.10;;;;;;;;;;5024755;28;20208;-70
2023/03/22 11:40:58;;;;;;;3.40;1.25;;;;;;;;;;5022765;28;20201;-69
2023/03/22 11:43:27;;;;;;;3.58;1.10;;;;;;;;;;5020357;28;20204;-70
2023/03/22 11:45:57;;;;;;;6.22;1.10;;;;;;;;;;5022226;28;20208;-69
2023/03/22 11:48:25;;;;;;;2.58;1.02;;;;;;;;;;5017595;28;20204;-69
2023/03/22 11:50:54;;;;;;;2.42;1.25;;;;;;;;;;5021361;28;20226;-69
2023/03/22 11:53:27;;;;;;;3.17;1.10;;;;;;;;;;5019855;28;20209;-69
2023/03/22 11:55:55;;;;;;;3.45;1.20;;;;;;;;;;5016044;28;20208;-69
2023/03/22 11:58:26;;;;;;;4.50;1.10;;;;;;;;;;5024509;28;20216;-70
2023/03/22 12:00:55;;;;;;;4.72;1.52;;;;;;;;;;5020212;28;20200;-69
2023/03/22 12:03:24;;;;;;;2.17;1.35;;;;;;;;;;5024280;28;20227;-70
2023/03/22 12:05:52;;;;;;;2.42;0.95;;;;;;;;;;5018862;28;20216;-70
2023/03/22 12:08:24;;;;;;;2.22;1.20;;;;;;;;;;5020868;28;20218;-70
2023/03/22 12:10:56;;;;;;;4.10;1.33;;;;;;;;;;5021118;28;20249;-70
2023/03/22 12:13:27;;;;;;;2.67;1.20;;;;;;;;;;5018205;28;20205;-70
2023/03/22 12:15:56;;;;;;;2.60;1.20;;;;;;;;;;5029991;28;20208;-70
2023/03/22 12:18:25;;;;;;;4.05;1.20;;;;;;;;;;5030545;28;20196;-70
2023/03/22 12:20:54;;;;;;;3.90;1.42;;;;;;;;;;5026686;28;20227;-70
2023/03/22 12:23:23;;;;;;;2.22;1.27;;;;;;;;;;5035317;28;20199;-70
2023/03/22 12:25:51;;;;;;;4.20;1.30;;;;;;;;;;5032320;28;20197;-70
2023/03/22 12:28:21;;;;;;;3.50;1.42;;;;;;;;;;5033645;28;20227;-69
2023/03/22 12:30:49;;;;;;;3.92;1.40;;;;;;;;;;5028456;28;20234;-71
2023/03/22 12:33:19;;;;;;;3.40;1.38;;;;;;;;;;5029720;28;20274;-70
2023/03/22 12:35:47;;;;;;;1.10;0.90;;;;;;;;;;5031207;28;20227;-68
2023/03/22 12:38:23;;;;;;;2.47;1.17;;;;;;;;;;5028299;28;20206;-69
2023/03/22 12:40:52;;;;;;;2.83;1.23;;;;;;;;;;5029864;28;20203;-62
2023/03/22 12:43:23;;;;;;;2.33;1.05;;;;;;;;;;5030203;28;20208;-62
2023/03/22 12:45:52;;;;;;;4.07;1.38;;;;;;;;;;5033235;28;20211;-62
2023/03/22 12:48:21;;;;;;;1.75;1.25;;;;;;;;;;5032842;28;20224;-62
2023/03/22 12:50:50;;;;;;;2.80;1.30;;;;;;;;;;5026539;28;20221;-62
2023/03/22 12:53:18;;;;;;;2.15;1.35;;;;;;;;;;5033458;28;20267;-62
2023/03/22 12:55:46;;;;;;;3.00;1.00;;;;;;;;;;5032832;28;20211;-62
2023/03/22 12:58:15;;;;;;;5.82;1.20;;;;;;;;;;5030171;28;20199;-62
2023/03/22 13:00:46;;;;;;;2.58;1.38;;;;;;;;;;5033840;28;20215;-62
2023/03/22 13:03:20;;;;;;;3.08;1.42;;;;;;;;;;5033895;28;20196;-62
2023/03/22 13:05:48;;;;;;;3.88;1.45;;;;;;;;;;5026720;28;20207;-62
2023/03/22 13:08:20;;;;;;;4.15;1.70;;;;;;;;;;5033044;28;20204;-62
2023/03/22 13:10:59;;;;;;;1.90;1.23;;;;;;;;;;5029929;28;20246;-62
2023/03/22 13:13:43;;;;;;;5.60;1.20;;;;;;;;;;5030518;28;20221;-62
2023/03/22 13:16:21;;;;;;;4.93;2.00;;;;;;;;;;5031596;28;20200;-62
2023/03/22 13:19:06;;;;;;;3.00;1.35;;;;;;;;;;5028719;28;20203;-62
2023/03/22 13:21:34;;;;;;;4.28;1.50;;;;;;;;;;5029627;28;20204;-62
2023/03/22 13:24:19;;;;;;;3.85;1.75;;;;;;;;;;5028643;28;20204;-62
2023/03/22 13:26:48;;;;;;;3.75;1.55;;;;;;;;;;5019903;28;20235;-62
2023/03/22 13:29:17;;;;;;;4.03;1.60;;;;;;;;;;5025393;28;20196;-62
2023/03/22 13:31:54;;;;;;;2.58;1.73;;;;;;;;;;5027464;28;20235;-62
2023/03/22 13:34:23;;;;;;;2.58;1.40;;;;;;;;;;5026134;28;20212;-62
2023/03/22 13:36:55;;;;;;;2.72;1.48;;;;;;;;;;5028593;28;20250;-62
2023/03/22 13:39:24;;;;;;;2.78;1.50;;;;;;;;;;5021304;28;20268;-62
2023/03/22 13:42:01;;;;;;;1.58;1.10;;;;;;;;;;5028084;28;20223;-62
2023/03/22 13:44:30;;;;;;;2.63;1.30;;;;;;;;;;5026307;28;20210;-62
2023/03/22 13:47:01;;;;;;;2.35;1.45;;;;;;;;;;5020018;28;20212;-61
2023/03/22 13:49:45;;;;;;;2.47;1.45;;;;;;;;;;5022180;28;20215;-62
2023/03/22 13:52:27;;;;;;;2.33;1.38;;;;;;;;;;5018731;28;20209;-62
2023/03/22 13:54:56;;;;;;;3.38;1.30;;;;;;;;;;5017006;28;20223;-62
2023/03/22 13:57:41;;;;;;;2.75;1.35;;;;;;;;;;5021889;28;20216;-62
2023/03/22 14:00:21;;;;;;;2.40;1.40;;;;;;;;;;5023443;28;20232;-62
2023/03/22 14:02:50;;;;;;;1.85;1.38;;;;;;;;;;5029500;28;20210;-62
2023/03/22 14:05:18;;;;;;;2.10;1.40;;;;;;;;;;5026105;28;20200;-62
2023/03/22 14:07:47;;;;;;;4.18;1.63;;;;;;;;;;5021639;28;20217;-62
2023/03/22 14:10:17;;;;;;;2.58;1.52;;;;;;;;;;5025622;28;20231;-62
2023/03/22 14:12:50;;;;;;;2.90;1.40;;;;;;;;;;5017438;28;20196;-62
2023/03/22 14:15:19;;;;;;;2.30;1.30;;;;;;;;;;5026823;28;20277;-61
2023/03/22 14:17:48;;;;;;;3.85;1.42;;;;;;;;;;5024687;28;20208;-61
2023/03/22 14:20:19;;;;;;;3.50;1.33;;;;;;;;;;5024794;28;20309;-62
2023/03/22 14:22:47;;;;;;;2.05;1.30;;;;;;;;;;5022322;28;20255;-61
2023/03/22 14:25:18;;;;;;;7.03;1.63;;;;;;;;;;5019989;28;20215;-61
2023/03/22 14:27:45;;;;;;;1.95;1.13;;;;;;;;;;5012991;28;20244;-61
2023/03/22 14:30:20;;;;;;;2.92;1.30;;;;;;;;;;5015864;28;20239;-61
2023/03/22 14:32:48;;;;;;;4.03;1.20;;;;;;;;;;5012783;28;20215;-61
2023/03/22 14:35:21;;;;;;;5.20;1.20;;;;;;;;;;5018143;28;20208;-61
2023/03/22 14:37:49;;;;;;;2.38;1.30;;;;;;;;;;5023399;28;20212;-62
2023/03/22 14:40:17;;;;;;;3.55;1.20;;;;;;;;;;5022286;28;20208;-62
2023/03/22 14:42:44;;;;;;;2.80;1.02;;;;;;;;;;5020613;28;20201;-61
2023/03/22 14:45:16;;;;;;;2.70;1.02;;;;;;;;;;5025528;28;20208;-62
2023/03/22 14:47:45;;;;;;;1.73;1.00;;;;;;;;;;5017827;28;20208;-62
2023/03/22 14:50:14;;;;;;;1.23;0.90;;;;;;;;;;5024019;28;20291;-62
2023/03/22 14:52:45;;;;;;;2.67;1.10;;;;;;;;;;5022368;28;20272;-62
2023/03/22 14:55:17;;;;;;;1.65;0.95;;;;;;;;;;5023712;28;20200;-62